Time;durP1;ratioP1;P1;durP2;ratioP2;P2;SDS_P1;SDS_P2;PMS_P1;PMS_P2;Temp;Humidity;BMP_temperature;BMP_pressure;BME280_temperature;BME280_humidity;BME280_pressure;Samples;Min_cycle;Max_cycle;Signal;HPM_P1;HPM_P2
2023/07/31 00:00:11;;;;;;;;;;;22.30;56.30;;;;;;5050981;28;19925;-61
2023/07/31 00:02:37;;;;;;;;;;;22.30;56.30;;;;;;5052642;28;20325;-59
2023/07/31 00:05:04;;;;;;;;;;;22.40;56.90;;;;;;5056329;28;19925;-60
2023/07/31 00:07:32;;;;;;;;;;;22.30;56.30;;;;;;5042142;28;19931;-60
2023/07/31 00:09:59;;;;;;;;;;;22.30;56.20;;;;;;5053529;28;19978;-61
2023/07/31 00:12:25;;;;;;;;;;;22.30;56.20;;;;;;5052862;28;19925;-61
2023/07/31 00:14:52;;;;;;;;;;;22.30;56.20;;;;;;5051515;28;19925;-62
2023/07/31 00:17:20;;;;;;;;;;;22.30;56.20;;;;;;5047039;28;19925;-60
2023/07/31 00:19:50;;;;;;;;;;;22.30;56.20;;;;;;5050303;28;19940;-60
2023/07/31 00:22:17;;;;;;;;;;;22.30;56.20;;;;;;5042546;28;19925;-61
2023/07/31 00:24:44;;;;;;;;;;;22.30;56.20;;;;;;5054108;28;19925;-61
2023/07/31 00:27:10;;;;;;;;;;;22.30;56.10;;;;;;5051806;28;19924;-62
2023/07/31 00:29:37;;;;;;;;;;;22.30;56.10;;;;;;5054476;28;19933;-58
2023/07/31 00:32:04;;;;;;;;;;;22.30;56.10;;;;;;5048320;28;19958;-60
2023/07/31 00:34:32;;;;;;;;;;;22.30;56.10;;;;;;5049771;28;19925;-60
2023/07/31 00:36:59;;;;;;;;;;;22.30;56.10;;;;;;5051214;28;19932;-60
2023/07/31 00:39:26;;;;;;;;;;;22.30;56.00;;;;;;5050940;28;19932;-61
2023/07/31 00:41:52;;;;;;;;;;;22.30;56.10;;;;;;5045353;28;20538;-62
2023/07/31 00:44:19;;;;;;;;;;;22.30;56.00;;;;;;5049877;28;19925;-60
2023/07/31 00:46:46;;;;;;;;;;;22.30;56.00;;;;;;5052218;28;20354;-61
2023/07/31 00:49:13;;;;;;;;;;;22.30;56.00;;;;;;5048911;28;19932;-60
2023/07/31 00:51:41;;;;;;;;;;;22.30;56.00;;;;;;5050784;28;19924;-59
2023/07/31 00:54:08;;;;;;;;;;;22.30;56.00;;;;;;5050721;28;19983;-61
2023/07/31 00:56:34;;;;;;;;;;;22.30;56.00;;;;;;5062159;28;20024;-62
2023/07/31 00:59:01;;;;;;;;;;;22.30;56.00;;;;;;5040442;28;20477;-62
2023/07/31 01:01:30;;;;;;;;;;;22.30;56.00;;;;;;5051418;28;19962;-59
2023/07/31 01:03:57;;;;;;;;;;;22.30;56.00;;;;;;5046821;28;19925;-62
2023/07/31 01:06:25;;;;;;;;;;;22.30;55.90;;;;;;5050814;28;19933;-59
2023/07/31 01:08:55;;;;;;;;;;;22.30;56.00;;;;;;5049086;28;19947;-61
2023/07/31 01:11:23;;;;;;;;;;;22.30;56.00;;;;;;5048702;28;19932;-61
2023/07/31 01:13:49;;;;;;;;;;;22.30;56.00;;;;;;5046919;28;19929;-58
2023/07/31 01:16:16;;;;;;;;;;;22.30;56.00;;;;;;5066755;28;19932;-60
2023/07/31 01:18:43;;;;;;;;;;;22.30;56.00;;;;;;5048085;28;19932;-61
2023/07/31 01:21:15;;;;;;;;;;;22.30;56.60;;;;;;5050395;28;20504;-60
2023/07/31 01:23:56;;;;;;;;;;;22.30;56.00;;;;;;5045469;28;19925;-61
2023/07/31 01:26:25;;;;;;;;;;;22.30;56.00;;;;;;5047055;28;19929;-59
2023/07/31 01:28:54;;;;;;;;;;;22.30;56.00;;;;;;5046605;28;19925;-61
2023/07/31 01:31:22;;;;;;;;;;;22.30;56.00;;;;;;5050414;28;19925;-60
2023/07/31 01:33:49;;;;;;;;;;;22.30;56.00;;;;;;5043986;28;19984;-61
2023/07/31 01:36:15;;;;;;;;;;;22.30;56.10;;;;;;5048037;28;19928;-59
2023/07/31 01:38:42;;;;;;;;;;;22.30;56.00;;;;;;5047761;28;19929;-62
2023/07/31 01:41:09;;;;;;;;;;;22.30;56.10;;;;;;5050270;28;19933;-60
2023/07/31 01:43:37;;;;;;;;;;;22.30;56.10;;;;;;5042988;28;19924;-61
2023/07/31 01:46:04;;;;;;;;;;;22.30;56.10;;;;;;5049654;28;19924;-60
2023/07/31 01:48:36;;;;;;;;;;;22.30;56.10;;;;;;5050553;28;19957;-60
2023/07/31 01:51:03;;;;;;;;;;;22.30;56.10;;;;;;5064249;28;19968;-60
2023/07/31 01:53:30;;;;;;;;;;;22.30;56.10;;;;;;5046696;28;20319;-61
2023/07/31 01:55:56;;;;;;;;;;;22.30;56.10;;;;;;5050845;28;19931;-61
2023/07/31 01:58:23;;;;;;;;;;;22.30;56.10;;;;;;5049517;28;19983;-61
2023/07/31 02:00:51;;;;;;;;;;;22.30;56.10;;;;;;5050790;28;19932;-59
2023/07/31 02:03:19;;;;;;;;;;;22.30;56.10;;;;;;5048006;28;19924;-60
2023/07/31 02:05:46;;;;;;;;;;;22.30;56.10;;;;;;5050587;28;19925;-60
2023/07/31 02:08:13;;;;;;;;;;;22.30;56.20;;;;;;5070949;28;19925;-62
2023/07/31 02:10:40;;;;;;;;;;;22.30;56.20;;;;;;5044220;28;19925;-60
2023/07/31 02:13:08;;;;;;;;;;;22.30;56.20;;;;;;5049137;28;20336;-60
2023/07/31 02:15:35;;;;;;;;;;;22.30;56.20;;;;;;5042299;28;19928;-59
2023/07/31 02:18:03;;;;;;;;;;;22.30;56.20;;;;;;5050254;28;19931;-61
2023/07/31 02:20:30;;;;;;;;;;;22.30;56.20;;;;;;5038790;28;19932;-60
2023/07/31 02:22:57;;;;;;;;;;;22.30;56.30;;;;;;5050576;28;19932;-60
2023/07/31 02:25:23;;;;;;;;;;;22.30;56.20;;;;;;5050010;28;19933;-60
2023/07/31 02:27:50;;;;;;;;;;;22.20;56.20;;;;;;5050075;28;19933;-60
2023/07/31 02:30:17;;;;;;;;;;;22.30;56.30;;;;;;5050093;28;19931;-60
2023/07/31 02:32:44;;;;;;;;;;;22.20;56.20;;;;;;5045066;28;19925;-60
2023/07/31 02:35:15;;;;;;;;;;;22.30;56.30;;;;;;5047523;28;19928;-60
2023/07/31 02:37:42;;;;;;;;;;;22.30;56.30;;;;;;5048017;28;19960;-60
2023/07/31 02:40:09;;;;;;;;;;;22.30;56.30;;;;;;5058909;28;19932;-62
2023/07/31 02:42:37;;;;;;;;;;;22.30;56.40;;;;;;5042287;28;19936;-62
2023/07/31 02:45:04;;;;;;;;;;;22.30;56.40;;;;;;5050016;28;19925;-61
2023/07/31 02:47:31;;;;;;;;;;;22.30;56.40;;;;;;5043886;28;19933;-60
2023/07/31 02:49:59;;;;;;;;;;;22.30;56.40;;;;;;5044440;28;19927;-62
2023/07/31 02:52:27;;;;;;;;;;;22.30;56.40;;;;;;5059248;28;19929;-61
2023/07/31 02:54:54;;;;;;;;;;;22.20;56.30;;;;;;5043921;28;19959;-62
2023/07/31 02:57:21;;;;;;;;;;;22.30;56.40;;;;;;5046375;28;19925;-60
2023/07/31 02:59:48;;;;;;;;;;;22.30;56.40;;;;;;5047009;28;19925;-59
2023/07/31 03:02:14;;;;;;;;;;;22.30;56.40;;;;;;5045909;28;19975;-61
2023/07/31 03:04:41;;;;;;;;;;;22.30;56.40;;;;;;5046803;28;19975;-61
2023/07/31 03:07:08;;;;;;;;;;;22.30;56.40;;;;;;5045436;28;20396;-61
2023/07/31 03:09:36;;;;;;;;;;;22.30;56.40;;;;;;5049236;28;20332;-61
2023/07/31 03:12:03;;;;;;;;;;;22.30;56.40;;;;;;5042754;28;19937;-59
2023/07/31 03:14:33;;;;;;;;;;;22.30;56.50;;;;;;5040171;28;19925;-61
2023/07/31 03:17:00;;;;;;;;;;;22.30;56.50;;;;;;5062803;28;19928;-61
2023/07/31 03:19:26;;;;;;;;;;;22.30;56.50;;;;;;5047717;28;19951;-60
2023/07/31 03:21:53;;;;;;;;;;;22.30;56.50;;;;;;5047975;28;19925;-60
2023/07/31 03:24:20;;;;;;;;;;;22.20;56.40;;;;;;5053139;28;20400;-60
2023/07/31 03:26:49;;;;;;;;;;;22.30;56.50;;;;;;5049746;28;20024;-62
2023/07/31 03:29:16;;;;;;;;;;;22.20;56.40;;;;;;5049154;28;19928;-60
2023/07/31 03:31:43;;;;;;;;;;;22.30;56.50;;;;;;5048819;28;19925;-61
2023/07/31 03:34:09;;;;;;;;;;;22.30;56.60;;;;;;5051546;28;19928;-59
2023/07/31 03:36:36;;;;;;;;;;;22.30;56.60;;;;;;5053358;28;19932;-60
2023/07/31 03:39:03;;;;;;;;;;;22.30;56.60;;;;;;5040481;28;19929;-60
2023/07/31 03:41:29;;;;;;;;;;;22.30;56.60;;;;;;5050740;28;19925;-60
2023/07/31 03:43:58;;;;;;;;;;;22.30;56.60;;;;;;5052743;28;19929;-61
2023/07/31 03:46:24;;;;;;;;;;;22.30;56.60;;;;;;5042906;28;19956;-61
2023/07/31 03:48:51;;;;;;;;;;;22.20;56.50;;;;;;5040555;28;19987;-62
2023/07/31 03:51:18;;;;;;;;;;;22.30;56.70;;;;;;5052075;28;19924;-61
2023/07/31 03:53:45;;;;;;;;;;;22.30;56.70;;;;;;5049963;28;19982;-62
2023/07/31 03:56:12;;;;;;;;;;;22.30;56.70;;;;;;5044075;28;19932;-61
2023/07/31 03:58:38;;;;;;;;;;;22.30;56.70;;;;;;5046791;28;20197;-61
2023/07/31 04:01:06;;;;;;;;;;;22.30;56.70;;;;;;5048699;28;19948;-61
2023/07/31 04:03:33;;;;;;;;;;;22.30;56.70;;;;;;5051974;28;20325;-61
2023/07/31 04:06:00;;;;;;;;;;;22.30;56.80;;;;;;5054230;28;19926;-61
2023/07/31 04:08:27;;;;;;;;;;;22.30;56.80;;;;;;5052561;28;19928;-60
2023/07/31 04:10:53;;;;;;;;;;;22.20;56.60;;;;;;5052517;28;19974;-61
2023/07/31 04:13:20;;;;;;;;;;;22.30;56.70;;;;;;5047838;28;19925;-61
2023/07/31 04:15:48;;;;;;;;;;;22.30;56.80;;;;;;5051666;28;20386;-61
2023/07/31 04:18:17;;;;;;;;;;;22.30;56.80;;;;;;5050545;28;19931;-61
2023/07/31 04:20:43;;;;;;;;;;;22.30;56.80;;;;;;5076143;28;19925;-61
2023/07/31 04:23:10;;;;;;;;;;;22.30;56.80;;;;;;5042011;28;19925;-60
2023/07/31 04:25:37;;;;;;;;;;;22.30;56.80;;;;;;5047810;28;19935;-60
2023/07/31 04:28:04;;;;;;;;;;;22.30;56.80;;;;;;5072840;28;19932;-61
2023/07/31 04:30:30;;;;;;;;;;;22.30;56.80;;;;;;5042859;28;19955;-60
2023/07/31 04:32:57;;;;;;;;;;;22.30;56.80;;;;;;5046857;28;19929;-61
2023/07/31 04:35:25;;;;;;;;;;;22.30;56.80;;;;;;5044432;28;20226;-60
2023/07/31 04:37:52;;;;;;;;;;;22.30;56.80;;;;;;5044677;28;19956;-61
2023/07/31 04:40:19;;;;;;;;;;;22.30;56.80;;;;;;5051656;28;19936;-59
2023/07/31 04:42:46;;;;;;;;;;;22.30;56.80;;;;;;5050508;28;19940;-60
2023/07/31 04:45:13;;;;;;;;;;;22.30;56.80;;;;;;5050573;28;19932;-60
2023/07/31 04:47:39;;;;;;;;;;;22.30;56.80;;;;;;5046423;28;19933;-60
2023/07/31 04:50:06;;;;;;;;;;;22.30;56.90;;;;;;5048212;28;19925;-61
2023/07/31 04:52:35;;;;;;;;;;;22.30;56.90;;;;;;5069567;28;19979;-61
2023/07/31 04:55:01;;;;;;;;;;;22.30;56.90;;;;;;5049475;28;19932;-61
2023/07/31 04:57:31;;;;;;;;;;;22.30;56.90;;;;;;5048073;28;19932;-61
2023/07/31 04:59:58;;;;;;;;;;;22.30;56.90;;;;;;5051745;28;20370;-61
2023/07/31 05:02:25;;;;;;;;;;;22.30;56.90;;;;;;5050690;28;19958;-59
2023/07/31 05:04:51;;;;;;;;;;;22.30;56.90;;;;;;5048396;28;19987;-61
2023/07/31 05:07:18;;;;;;;;;;;22.30;56.90;;;;;;5049112;28;19935;-61
2023/07/31 05:09:46;;;;;;;;;;;22.30;57.00;;;;;;5051387;28;19933;-61
2023/07/31 05:12:13;;;;;;;;;;;22.30;57.00;;;;;;5051255;28;19971;-61
2023/07/31 05:14:40;;;;;;;;;;;22.30;57.00;;;;;;5044949;28;19979;-62
2023/07/31 05:17:06;;;;;;;;;;;22.30;57.00;;;;;;5051649;28;19936;-60
2023/07/31 05:19:33;;;;;;;;;;;22.30;57.00;;;;;;5049232;28;19933;-61
2023/07/31 05:22:00;;;;;;;;;;;22.30;57.00;;;;;;5049498;28;19937;-60
2023/07/31 05:24:27;;;;;;;;;;;22.30;57.00;;;;;;5052134;28;20100;-59
2023/07/31 05:26:55;;;;;;;;;;;22.30;57.00;;;;;;5048982;28;19928;-61
2023/07/31 05:29:21;;;;;;;;;;;22.30;57.00;;;;;;5048991;28;20348;-61
2023/07/31 05:31:48;;;;;;;;;;;22.30;57.00;;;;;;5050529;28;19932;-61
2023/07/31 05:34:15;;;;;;;;;;;22.30;57.10;;;;;;5068219;28;20271;-61
2023/07/31 05:36:42;;;;;;;;;;;22.30;57.10;;;;;;5049459;28;20357;-61
2023/07/31 05:39:08;;;;;;;;;;;22.30;57.10;;;;;;5051826;28;19935;-60
2023/07/31 05:41:35;;;;;;;;;;;22.30;57.10;;;;;;5050498;28;19959;-61
2023/07/31 05:44:04;;;;;;;;;;;22.30;57.10;;;;;;5044876;28;19924;-61
2023/07/31 05:46:32;;;;;;;;;;;22.30;57.10;;;;;;5049997;28;20088;-61
2023/07/31 05:49:00;;;;;;;;;;;22.30;57.10;;;;;;5050659;28;19959;-61
2023/07/31 05:51:27;;;;;;;;;;;22.30;57.10;;;;;;5048529;28;19932;-58
2023/07/31 05:53:54;;;;;;;;;;;22.30;57.10;;;;;;5064494;28;20225;-61
2023/07/31 05:56:20;;;;;;;;;;;22.30;57.10;;;;;;5038130;28;19979;-60
2023/07/31 05:58:48;;;;;;;;;;;22.30;57.10;;;;;;5049484;28;20014;-61
2023/07/31 06:01:17;;;;;;;;;;;22.30;57.20;;;;;;5047985;28;19925;-62
2023/07/31 06:03:44;;;;;;;;;;;22.30;57.20;;;;;;5040945;28;19947;-61
2023/07/31 06:06:11;;;;;;;;;;;22.30;57.20;;;;;;5049426;28;20052;-61
2023/07/31 06:08:37;;;;;;;;;;;22.30;57.20;;;;;;5041322;28;19975;-61
2023/07/31 06:11:05;;;;;;;;;;;22.30;57.20;;;;;;5064456;28;19929;-61
2023/07/31 06:13:32;;;;;;;;;;;22.30;57.20;;;;;;5037517;28;20032;-60
2023/07/31 06:16:00;;;;;;;;;;;22.30;57.30;;;;;;5038560;28;19940;-60
2023/07/31 06:18:28;;;;;;;;;;;22.30;57.30;;;;;;5047001;28;19964;-60
2023/07/31 06:20:55;;;;;;;;;;;22.30;57.30;;;;;;5048915;28;19928;-61
2023/07/31 06:23:22;;;;;;;;;;;22.30;57.30;;;;;;5041933;28;19924;-60
2023/07/31 06:25:49;;;;;;;;;;;22.30;57.30;;;;;;5042757;28;19937;-60
2023/07/31 06:28:15;;;;;;;;;;;22.30;57.30;;;;;;5043483;28;19931;-60
2023/07/31 06:30:42;;;;;;;;;;;22.30;57.30;;;;;;5048267;28;19978;-60
2023/07/31 06:33:10;;;;;;;;;;;22.30;57.40;;;;;;5049633;28;19982;-60
2023/07/31 06:35:38;;;;;;;;;;;22.30;57.40;;;;;;5047205;28;20388;-60
2023/07/31 06:38:04;;;;;;;;;;;22.30;57.40;;;;;;5046259;28;19983;-60
2023/07/31 06:40:31;;;;;;;;;;;22.30;57.60;;;;;;5045837;28;20437;-60
2023/07/31 06:42:58;;;;;;;;;;;22.30;57.60;;;;;;5049849;28;20593;-62
2023/07/31 06:45:25;;;;;;;;;;;22.30;57.60;;;;;;5064412;28;19994;-64
2023/07/31 06:47:51;;;;;;;;;;;22.30;57.60;;;;;;5050254;28;19925;-64
2023/07/31 06:50:18;;;;;;;;;;;22.30;57.70;;;;;;5044664;28;19924;-63
2023/07/31 06:52:47;;;;;;;;;;;22.30;57.70;;;;;;5049949;28;19991;-63
2023/07/31 06:55:17;;;;;;;;;;;22.30;57.70;;;;;;5052841;28;19951;-60
2023/07/31 06:57:44;;;;;;;;;;;22.30;57.80;;;;;;5060511;28;19932;-63
2023/07/31 07:00:11;;;;;;;;;;;22.30;57.80;;;;;;5070033;28;19933;-63
2023/07/31 07:02:38;;;;;;;;;;;22.30;57.80;;;;;;5052859;28;20302;-61
2023/07/31 07:05:05;;;;;;;;;;;22.30;57.80;;;;;;5069784;28;19986;-62
2023/07/31 07:07:35;;;;;;;;;;;22.30;57.80;;;;;;5050468;28;19929;-64
2023/07/31 07:10:03;;;;;;;;;;;22.30;57.80;;;;;;5045755;28;19971;-65
2023/07/31 07:12:30;;;;;;;;;;;22.30;57.80;;;;;;5041461;28;19937;-64
2023/07/31 07:14:57;;;;;;;;;;;22.30;57.80;;;;;;5053249;28;20622;-64
2023/07/31 07:17:24;;;;;;;;;;;22.30;57.80;;;;;;5054248;28;19994;-63
2023/07/31 07:19:51;;;;;;;;;;;22.30;58.00;;;;;;5054465;28;19925;-64
2023/07/31 07:22:18;;;;;;;;;;;22.30;57.80;;;;;;5075705;28;19925;-64
2023/07/31 07:24:45;;;;;;;;;;;22.30;57.80;;;;;;5046847;28;19932;-65
2023/07/31 07:27:13;;;;;;;;;;;22.30;57.80;;;;;;5049137;28;19975;-65
2023/07/31 07:29:40;;;;;;;;;;;22.30;57.80;;;;;;5049170;28;19960;-65
2023/07/31 07:32:07;;;;;;;;;;;22.30;57.90;;;;;;5056853;28;19929;-65
2023/07/31 07:34:34;;;;;;;;;;;22.40;58.00;;;;;;5054149;28;19924;-62
2023/07/31 07:37:00;;;;;;;;;;;22.30;57.90;;;;;;5052435;28;19928;-64
2023/07/31 07:39:27;;;;;;;;;;;22.30;57.90;;;;;;5053489;28;19925;-62
2023/07/31 07:41:54;;;;;;;;;;;22.30;57.90;;;;;;5053746;28;20277;-63
2023/07/31 07:44:22;;;;;;;;;;;22.30;57.90;;;;;;5050803;28;19928;-63
2023/07/31 07:46:49;;;;;;;;;;;22.40;58.00;;;;;;5056008;28;19924;-63
2023/07/31 07:49:16;;;;;;;;;;;22.40;58.00;;;;;;5050833;28;19933;-64
2023/07/31 07:51:42;;;;;;;;;;;22.30;58.00;;;;;;5053068;28;19925;-62
2023/07/31 07:54:09;;;;;;;;;;;22.40;58.00;;;;;;5054364;28;19925;-65
2023/07/31 07:56:36;;;;;;;;;;;22.40;58.10;;;;;;5048796;28;19932;-62
2023/07/31 07:59:03;;;;;;;;;;;22.40;58.00;;;;;;5048845;28;20016;-61
2023/07/31 08:01:31;;;;;;;;;;;22.40;58.00;;;;;;5048279;28;19932;-63
2023/07/31 08:03:58;;;;;;;;;;;22.40;58.00;;;;;;5053053;28;19925;-66
2023/07/31 08:06:25;;;;;;;;;;;22.40;58.10;;;;;;5045186;28;20002;-62
2023/07/31 08:08:52;;;;;;;;;;;22.40;58.10;;;;;;5048772;28;19925;-62
2023/07/31 08:11:19;;;;;;;;;;;22.40;58.10;;;;;;5051758;28;19925;-65
2023/07/31 08:13:46;;;;;;;;;;;22.40;58.10;;;;;;5052672;28;19979;-65
2023/07/31 08:16:12;;;;;;;;;;;22.40;58.20;;;;;;5052826;28;19978;-64
2023/07/31 08:18:42;;;;;;;;;;;22.40;58.20;;;;;;5050651;28;19936;-64
2023/07/31 08:21:09;;;;;;;;;;;22.40;58.20;;;;;;5052604;28;20281;-62
2023/07/31 08:23:35;;;;;;;;;;;22.40;58.20;;;;;;5052591;28;19928;-66
2023/07/31 08:26:02;;;;;;;;;;;22.40;58.20;;;;;;5050664;28;19944;-66
2023/07/31 08:28:29;;;;;;;;;;;22.40;58.20;;;;;;5049089;28;19924;-64
2023/07/31 08:30:56;;;;;;;;;;;22.50;58.30;;;;;;5047149;28;19974;-66
2023/07/31 08:33:22;;;;;;;;;;;22.40;58.20;;;;;;5051450;28;19925;-64
2023/07/31 08:35:50;;;;;;;;;;;22.40;58.50;;;;;;5070481;28;19925;-66
2023/07/31 08:38:17;;;;;;;;;;;22.40;59.00;;;;;;5043260;28;20006;-65
2023/07/31 08:40:44;;;;;;;;;;;22.50;59.30;;;;;;5046435;28;19932;-67
2023/07/31 08:43:11;;;;;;;;;;;22.40;59.40;;;;;;5051216;28;19928;-68
2023/07/31 08:45:37;;;;;;;;;;;22.40;59.40;;;;;;5046942;28;19940;-65
2023/07/31 08:48:04;;;;;;;;;;;22.40;59.60;;;;;;5044931;28;19978;-65
2023/07/31 08:50:31;;;;;;;;;;;22.30;59.60;;;;;;5048451;28;19936;-66
2023/07/31 08:52:59;;;;;;;;;;;22.30;59.70;;;;;;5051054;28;19933;-67
2023/07/31 08:55:26;;;;;;;;;;;22.30;59.90;;;;;;5047298;28;19928;-65
2023/07/31 08:57:53;;;;;;;;;;;22.30;59.80;;;;;;5041040;28;19944;-67
2023/07/31 09:00:23;;;;;;;;;;;22.30;60.10;;;;;;5046436;28;19928;-65
2023/07/31 09:02:52;;;;;;;;;;;22.20;60.30;;;;;;5047007;28;19936;-62
2023/07/31 09:05:18;;;;;;;;;;;22.20;60.40;;;;;;5048603;28;19933;-65
2023/07/31 09:07:47;;;;;;;;;;;22.20;60.70;;;;;;5046792;28;19924;-65
2023/07/31 09:10:15;;;;;;;;;;;22.20;60.80;;;;;;5045102;28;20020;-65
2023/07/31 09:12:41;;;;;;;;;;;22.20;60.90;;;;;;5049793;28;19929;-64
2023/07/31 09:15:09;;;;;;;;;;;22.10;61.00;;;;;;5048377;28;19928;-65
2023/07/31 09:17:36;;;;;;;;;;;22.10;61.00;;;;;;5044100;28;19979;-64
2023/07/31 09:20:16;;;;;;;;;;;22.00;60.90;;;;;;5045659;28;20288;-62
2023/07/31 09:22:44;;;;;;;;;;;22.00;61.10;;;;;;5040642;28;20003;-63
2023/07/31 09:25:18;;;;;;;;;;;22.00;61.40;;;;;;5044559;28;19999;-62
2023/07/31 09:27:48;;;;;;;;;;;22.00;61.50;;;;;;5042247;28;19935;-67
2023/07/31 09:30:15;;;;;;;;;;;21.90;61.50;;;;;;5044160;28;19925;-65
2023/07/31 09:32:42;;;;;;;;;;;21.90;61.70;;;;;;5044778;28;19933;-65
2023/07/31 09:35:15;;;;;;;;;;;21.90;61.70;;;;;;5039707;28;19925;-66
2023/07/31 09:37:42;;;;;;;;;;;21.90;61.90;;;;;;5044883;28;19932;-68
2023/07/31 09:40:09;;;;;;;;;;;21.80;62.10;;;;;;5047080;28;19932;-67
2023/07/31 09:42:37;;;;;;;;;;;21.70;61.70;;;;;;5048832;28;19932;-63
2023/07/31 09:45:11;;;;;;;;;;;21.70;61.50;;;;;;5037063;28;19932;-62
2023/07/31 09:47:37;;;;;;;;;;;21.70;61.60;;;;;;5043057;28;19925;-64
2023/07/31 09:50:07;;;;;;;;;;;21.70;61.80;;;;;;5045576;28;19924;-65
2023/07/31 09:52:34;;;;;;;;;;;21.70;61.80;;;;;;5039470;28;19929;-64
2023/07/31 09:55:01;;;;;;;;;;;21.60;62.00;;;;;;5035486;28;19925;-63
2023/07/31 09:57:28;;;;;;;;;;;21.60;62.00;;;;;;5045684;28;20528;-63
2023/07/31 09:59:56;;;;;;;;;;;21.60;62.40;;;;;;5045443;28;19925;-65
2023/07/31 10:02:23;;;;;;;;;;;21.60;62.60;;;;;;5056152;28;19979;-65
2023/07/31 10:04:50;;;;;;;;;;;21.50;62.50;;;;;;5042736;28;19936;-65
2023/07/31 10:07:17;;;;;;;;;;;21.50;62.30;;;;;;5039552;28;19925;-65
2023/07/31 10:09:44;;;;;;;;;;;21.50;62.20;;;;;;5046122;28;19925;-66
2023/07/31 10:12:10;;;;;;;;;;;21.50;62.30;;;;;;5046381;28;19925;-65
2023/07/31 10:14:38;;;;;;;;;;;21.50;62.50;;;;;;5058851;28;19924;-63
2023/07/31 10:17:07;;;;;;;;;;;21.50;62.50;;;;;;5047765;28;19982;-65
2023/07/31 10:19:33;;;;;;;;;;;21.50;62.60;;;;;;5038820;28;19925;-65
2023/07/31 10:22:00;;;;;;;;;;;21.50;62.80;;;;;;5045069;28;19924;-65
2023/07/31 10:24:27;;;;;;;;;;;21.50;63.00;;;;;;5043242;28;19925;-64
2023/07/31 10:26:54;;;;;;;;;;;21.40;62.90;;;;;;5048114;28;19929;-66
2023/07/31 10:29:20;;;;;;;;;;;21.40;63.00;;;;;;5048608;28;19929;-64
2023/07/31 10:31:47;;;;;;;;;;;21.50;63.10;;;;;;5048812;28;19982;-63
2023/07/31 10:34:15;;;;;;;;;;;21.50;63.10;;;;;;5037162;28;19926;-65
2023/07/31 10:36:42;;;;;;;;;;;21.50;63.20;;;;;;5048083;28;19936;-64
2023/07/31 10:39:34;;;;;;;;;;;21.50;63.10;;;;;;5041276;28;19936;-65
2023/07/31 10:42:00;;;;;;;;;;;21.40;63.10;;;;;;5044443;28;19983;-66
2023/07/31 10:44:27;;;;;;;;;;;21.50;63.30;;;;;;5050012;28;19939;-64
2023/07/31 10:46:55;;;;;;;;;;;21.50;63.60;;;;;;5058548;28;19929;-64
2023/07/31 10:49:24;;;;;;;;;;;21.50;63.40;;;;;;5058851;28;19928;-64
2023/07/31 10:51:50;;;;;;;;;;;21.50;63.60;;;;;;5050897;28;19933;-68
2023/07/31 10:54:18;;;;;;;;;;;21.50;63.70;;;;;;5049525;28;19925;-64
2023/07/31 10:56:45;;;;;;;;;;;21.50;63.70;;;;;;5039253;28;20007;-66
2023/07/31 10:59:13;;;;;;;;;;;21.50;63.70;;;;;;5039053;28;19925;-65
2023/07/31 11:01:53;;;;;;;;;;;21.50;63.60;;;;;;5029222;28;19972;-66
2023/07/31 11:04:24;;;;;;;;;;;21.50;63.60;;;;;;5050870;28;19928;-67
2023/07/31 11:06:58;;;;;;;;;;;21.60;63.90;;;;;;5043334;28;19963;-67
2023/07/31 11:09:25;;;;;;;;;;;21.60;64.20;;;;;;5050696;28;19924;-66
2023/07/31 11:11:52;;;;;;;;;;;21.60;64.30;;;;;;5039814;28;19932;-68
2023/07/31 11:14:19;;;;;;;;;;;21.60;64.00;;;;;;5045719;28;19936;-69
2023/07/31 11:16:45;;;;;;;;;;;21.60;64.00;;;;;;5047151;28;19931;-67
2023/07/31 11:19:12;;;;;;;;;;;21.60;63.90;;;;;;5051459;28;20002;-66
2023/07/31 11:21:40;;;;;;;;;;;21.60;64.00;;;;;;5035912;28;19931;-67
2023/07/31 11:24:07;;;;;;;;;;;21.60;64.30;;;;;;5044181;28;19929;-67
2023/07/31 11:26:34;;;;;;;;;;;21.60;64.40;;;;;;5050686;28;20070;-66
2023/07/31 11:29:01;;;;;;;;;;;21.60;64.50;;;;;;5045601;28;19954;-63
2023/07/31 11:31:28;;;;;;;;;;;21.70;64.70;;;;;;5048533;28;19931;-63
2023/07/31 11:34:05;;;;;;;;;;;21.60;64.80;;;;;;5049543;28;19971;-66
2023/07/31 11:36:31;;;;;;;;;;;21.60;65.00;;;;;;5052224;28;19932;-65
2023/07/31 11:39:07;;;;;;;;;;;21.70;65.00;;;;;;5049411;28;19947;-65
2023/07/31 11:41:34;;;;;;;;;;;21.70;65.20;;;;;;5044757;28;19929;-66
2023/07/31 11:44:01;;;;;;;;;;;21.60;65.20;;;;;;5036008;28;19971;-67
2023/07/31 11:46:28;;;;;;;;;;;21.60;65.30;;;;;;5070652;28;19924;-69
2023/07/31 11:48:56;;;;;;;;;;;21.60;65.30;;;;;;5052673;28;19929;-62
2023/07/31 11:51:23;;;;;;;;;;;21.60;65.30;;;;;;5046977;28;19940;-66
2023/07/31 11:53:50;;;;;;;;;;;21.60;65.30;;;;;;5045061;28;19926;-65
2023/07/31 11:56:20;;;;;;;;;;;21.60;65.40;;;;;;5050798;28;19931;-68
2023/07/31 11:58:46;;;;;;;;;;;21.60;65.50;;;;;;5054899;28;19986;-68
2023/07/31 12:01:14;;;;;;;;;;;21.60;65.80;;;;;;5054251;28;19935;-64
2023/07/31 12:03:42;;;;;;;;;;;21.60;65.70;;;;;;5057416;28;20024;-65
2023/07/31 12:06:09;;;;;;;;;;;21.60;65.80;;;;;;5054986;28;19988;-65
2023/07/31 12:08:36;;;;;;;;;;;21.60;65.80;;;;;;5056683;28;20269;-65
2023/07/31 12:11:03;;;;;;;;;;;21.60;66.00;;;;;;5054278;28;19925;-66
2023/07/31 12:13:32;;;;;;;;;;;21.60;66.00;;;;;;5047528;28;19931;-65
2023/07/31 12:15:59;;;;;;;;;;;21.60;66.00;;;;;;5045985;28;19925;-66
2023/07/31 12:18:26;;;;;;;;;;;21.60;66.20;;;;;;5057631;28;19939;-65
2023/07/31 12:20:54;;;;;;;;;;;21.60;66.40;;;;;;5056574;28;19929;-67
2023/07/31 12:23:27;;;;;;;;;;;21.60;66.40;;;;;;5059600;28;19931;-66
2023/07/31 12:26:01;;;;;;;;;;;21.60;66.20;;;;;;5039821;28;19933;-67
2023/07/31 12:28:27;;;;;;;;;;;21.60;66.10;;;;;;5073068;28;19982;-68
2023/07/31 12:30:59;;;;;;;;;;;21.60;66.20;;;;;;5058234;28;20052;-65
2023/07/31 12:33:28;;;;;;;;;;;21.60;66.10;;;;;;5058076;28;19929;-64
2023/07/31 12:35:55;;;;;;;;;;;21.60;66.10;;;;;;5050302;28;19924;-66
2023/07/31 12:38:23;;;;;;;;;;;21.60;66.20;;;;;;5058141;28;19925;-67
2023/07/31 12:40:49;;;;;;;;;;;21.60;66.10;;;;;;5057560;28;19924;-68
2023/07/31 12:43:16;;;;;;;;;;;21.60;66.10;;;;;;5060460;28;19936;-68
2023/07/31 12:45:43;;;;;;;;;;;21.60;66.20;;;;;;5053359;28;19931;-68
2023/07/31 12:48:12;;;;;;;;;;;21.60;66.30;;;;;;5064095;28;19967;-64
2023/07/31 12:50:40;;;;;;;;;;;21.70;66.60;;;;;;5050261;28;20020;-67
2023/07/31 12:53:06;;;;;;;;;;;21.70;66.70;;;;;;5072729;28;19944;-61
2023/07/31 12:55:34;;;;;;;;;;;21.70;67.00;;;;;;5048027;28;19924;-67
2023/07/31 12:58:01;;;;;;;;;;;21.60;66.90;;;;;;5049023;28;19971;-64
2023/07/31 13:00:28;;;;;;;;;;;21.70;66.90;;;;;;5051254;28;19968;-64
2023/07/31 13:02:55;;;;;;;;;;;21.60;67.00;;;;;;5064297;28;20402;-65
2023/07/31 13:05:23;;;;;;;;;;;21.70;66.80;;;;;;5069625;28;19924;-65
2023/07/31 13:07:50;;;;;;;;;;;21.70;66.70;;;;;;5044743;28;20011;-66
2023/07/31 13:10:17;;;;;;;;;;;21.70;66.90;;;;;;5048716;28;19925;-69
2023/07/31 13:12:43;;;;;;;;;;;21.70;66.90;;;;;;5048097;28;19925;-69
2023/07/31 13:15:10;;;;;;;;;;;21.70;66.70;;;;;;5043895;28;19924;-66
2023/07/31 13:17:38;;;;;;;;;;;21.70;66.70;;;;;;5063893;28;19924;-68
2023/07/31 13:20:05;;;;;;;;;;;21.70;66.70;;;;;;5060725;28;19931;-65
2023/07/31 13:22:33;;;;;;;;;;;21.70;67.00;;;;;;5042452;28;19925;-68
2023/07/31 13:25:00;;;;;;;;;;;21.70;67.30;;;;;;5038319;28;19926;-67
2023/07/31 13:27:27;;;;;;;;;;;21.70;67.30;;;;;;5041062;28;19933;-63
2023/07/31 13:29:54;;;;;;;;;;;21.70;67.30;;;;;;5037086;28;19983;-71
2023/07/31 13:32:21;;;;;;;;;;;21.70;67.50;;;;;;5036708;28;19932;-65
2023/07/31 13:34:48;;;;;;;;;;;21.70;67.30;;;;;;5039581;28;19955;-64
2023/07/31 13:37:15;;;;;;;;;;;21.70;67.30;;;;;;5047251;28;19925;-66
2023/07/31 13:39:43;;;;;;;;;;;21.70;67.50;;;;;;5036791;28;20314;-65
2023/07/31 13:42:12;;;;;;;;;;;21.70;67.10;;;;;;5037900;28;19925;-68
2023/07/31 13:44:38;;;;;;;;;;;21.70;67.50;;;;;;5038572;28;19974;-66
2023/07/31 13:47:05;;;;;;;;;;;21.70;67.30;;;;;;5060807;28;19929;-63
2023/07/31 13:49:35;;;;;;;;;;;21.70;67.40;;;;;;5064334;28;19929;-68
2023/07/31 13:52:02;;;;;;;;;;;21.80;67.30;;;;;;5043357;28;19964;-63
2023/07/31 13:54:29;;;;;;;;;;;21.80;67.50;;;;;;5044349;28;20341;-66
2023/07/31 13:56:57;;;;;;;;;;;21.70;67.50;;;;;;5043118;28;19936;-67
2023/07/31 13:59:24;;;;;;;;;;;21.80;67.60;;;;;;5043546;28;19940;-69
2023/07/31 14:01:50;;;;;;;;;;;21.80;67.90;;;;;;5046534;28;19936;-67
2023/07/31 14:04:19;;;;;;;;;;;21.80;67.90;;;;;;5046761;28;19925;-68
2023/07/31 14:06:47;;;;;;;;;;;21.70;68.10;;;;;;5034468;28;19929;-68
2023/07/31 14:09:14;;;;;;;;;;;21.80;68.30;;;;;;5040425;28;19925;-66
2023/07/31 14:11:41;;;;;;;;;;;21.80;68.30;;;;;;5064247;28;19925;-68
2023/07/31 14:14:10;;;;;;;;;;;21.80;67.90;;;;;;5048178;28;20035;-64
2023/07/31 14:16:37;;;;;;;;;;;21.80;67.90;;;;;;5037798;28;19929;-65